createdAt,value
2022-08-31T00:00:12.283Z,99089.84
2022-08-31T00:02:58.489Z,99101.47
2022-08-31T00:05:25.898Z,99108.69
2022-08-31T00:07:53.113Z,99106.69
2022-08-31T00:10:32.546Z,99095.50
2022-08-31T00:13:07.016Z,99099.13
2022-08-31T00:15:35.799Z,99100.72
2022-08-31T00:18:04.210Z,99105.13
2022-08-31T00:20:34.187Z,99107.13
2022-08-31T00:23:04.691Z,99113.53
2022-08-31T00:25:33.892Z,99105.53
2022-08-31T00:28:01.187Z,99115.56
2022-08-31T00:30:30.232Z,99109.59
2022-08-31T00:32:58.542Z,99097.19
2022-08-31T00:35:27.760Z,99104.41
2022-08-31T00:37:55.717Z,99100.81
2022-08-31T00:40:23.600Z,99108.81
2022-08-31T00:42:51.050Z,99112.44
2022-08-31T00:45:18.593Z,99102.00
2022-08-31T00:47:45.779Z,99102.78
2022-08-31T00:50:16.261Z,99103.19
2022-08-31T00:52:48.478Z,99106.81
2022-08-31T00:55:27.966Z,99114.00
2022-08-31T00:57:59.973Z,99112.00
2022-08-31T01:00:29.122Z,99108.00
2022-08-31T01:02:59.674Z,99109.59
2022-08-31T01:05:26.882Z,99102.00
2022-08-31T01:07:54.214Z,99103.19
2022-08-31T01:10:24.576Z,99121.22
2022-08-31T01:12:54.985Z,99114.81
2022-08-31T01:15:25.080Z,99124.06
2022-08-31T01:17:55.325Z,99126.06
2022-08-31T01:20:48.713Z,99138.06
2022-08-31T01:23:23.250Z,99126.84
2022-08-31T01:25:52.662Z,99120.44
2022-08-31T01:28:20.069Z,99135.66
2022-08-31T01:31:00.083Z,99118.03
2022-08-31T01:33:28.046Z,99120.84
2022-08-31T01:35:55.755Z,99112.00
2022-08-31T01:38:23.333Z,99122.03
2022-08-31T01:40:56.538Z,99120.03
2022-08-31T01:43:24.560Z,99126.44
2022-08-31T01:45:52.058Z,99113.19
2022-08-31T01:48:22.181Z,99140.81
2022-08-31T01:50:49.699Z,99130.03
2022-08-31T01:53:17.969Z,99140.00
2022-08-31T01:55:46.532Z,99143.22
2022-08-31T01:58:14.729Z,99137.22
2022-08-31T02:01:00.886Z,99124.00
2022-08-31T02:03:28.158Z,99132.81
2022-08-31T02:08:22.021Z,99138.84
2022-08-31T02:10:50.907Z,99132.81
2022-08-31T02:13:18.508Z,99127.19
2022-08-31T02:15:45.944Z,99127.13
2022-08-31T02:18:15.192Z,99103.88
2022-08-31T02:20:42.561Z,99111.88
2022-08-31T02:23:10.475Z,99116.28
2022-08-31T02:25:37.883Z,99112.63
2022-08-31T02:28:05.306Z,99117.41
2022-08-31T02:30:32.660Z,99119.81
2022-08-31T02:32:59.693Z,99108.59
2022-08-31T02:35:27.345Z,99114.16
2022-08-31T02:37:54.914Z,99116.16
2022-08-31T02:40:22.618Z,99109.31
2022-08-31T02:42:53.862Z,99122.91
2022-08-31T02:45:27.325Z,99124.47
2022-08-31T02:48:01.318Z,99118.38
2022-08-31T02:50:43.546Z,99129.94
2022-08-31T02:53:13.404Z,99133.94
2022-08-31T02:55:43.086Z,99138.81
2022-08-31T02:58:12.224Z,99130.78
2022-08-31T03:00:44.181Z,99140.44
2022-08-31T03:03:11.517Z,99144.75
2022-08-31T03:05:39.215Z,99153.59
2022-08-31T03:08:07.960Z,99143.56
2022-08-31T03:10:35.821Z,99136.75
2022-08-31T03:13:02.879Z,99147.16
2022-08-31T03:15:30.405Z,99141.13
2022-08-31T03:18:06.773Z,99156.31
2022-08-31T03:20:34.955Z,99147.50
2022-08-31T03:23:03.529Z,99144.28
2022-08-31T03:25:32.298Z,99147.44
2022-08-31T03:28:00.304Z,99148.25
2022-08-31T03:30:32.031Z,99143.53
2022-08-31T03:33:07.069Z,99148.25
2022-08-31T03:35:35.889Z,99144.53
2022-08-31T03:38:03.446Z,99143.28
2022-08-31T03:40:30.809Z,99143.28
2022-08-31T03:42:58.998Z,99145.28
2022-08-31T03:45:28.020Z,99149.25
2022-08-31T03:47:55.615Z,99146.06
2022-08-31T03:50:24.808Z,99142.84
2022-08-31T03:53:04.365Z,99150.84
2022-08-31T03:55:33.067Z,99155.25
2022-08-31T03:58:00.782Z,99161.28
2022-08-31T04:00:28.821Z,99160.94
2022-08-31T04:03:02.618Z,99166.16
2022-08-31T04:05:35.333Z,99156.94
2022-08-31T04:08:08.210Z,99149.78
2022-08-31T04:10:54.252Z,99146.59
2022-08-31T04:13:27.986Z,99157.44
2022-08-31T04:16:19.729Z,99160.63
2022-08-31T04:19:24.993Z,99155.47
2022-08-31T04:21:59.549Z,99160.69
2022-08-31T04:24:29.622Z,99164.72
2022-08-31T04:26:56.740Z,99151.97
2022-08-31T04:29:24.224Z,99158.81
2022-08-31T04:31:51.413Z,99151.63
2022-08-31T04:34:18.602Z,99160.47
2022-08-31T04:36:45.986Z,99165.69
2022-08-31T04:39:14.672Z,99148.88
2022-08-31T04:41:44.886Z,99155.69
2022-08-31T04:44:17.711Z,99156.53
2022-08-31T04:46:49.298Z,99159.38
2022-08-31T04:49:16.412Z,99152.16
2022-08-31T04:51:44.640Z,99158.59
2022-08-31T04:54:14.003Z,99155.00
2022-08-31T04:56:45.451Z,99157.44
2022-08-31T04:59:26.154Z,99159.88
2022-08-31T05:02:16.922Z,99166.72
2022-08-31T05:04:50.049Z,99159.16
2022-08-31T05:07:17.194Z,99160.81
2022-08-31T05:09:44.802Z,99154.41
2022-08-31T05:12:12.219Z,99168.44
2022-08-31T05:14:39.478Z,99156.03
2022-08-31T05:17:17.847Z,99160.84
2022-08-31T05:19:45.371Z,99168.03
2022-08-31T05:22:15.010Z,99166.84
2022-08-31T05:24:44.289Z,99172.88
2022-08-31T05:27:13.095Z,99168.06
2022-08-31T05:29:41.347Z,99179.31
2022-08-31T05:32:31.369Z,99169.69
2022-08-31T05:35:00.537Z,99173.72
2022-08-31T05:37:27.855Z,99171.72
2022-08-31T05:39:55.293Z,99170.94
2022-08-31T05:42:22.466Z,99168.94
2022-08-31T05:44:50.119Z,99170.50
2022-08-31T05:47:17.592Z,99153.28
2022-08-31T05:49:45.176Z,99162.47
2022-08-31T05:52:17.210Z,99167.28
2022-08-31T05:54:44.565Z,99174.47
2022-08-31T05:57:11.907Z,99160.03
2022-08-31T05:59:40.236Z,99164.03
2022-08-31T06:02:11.066Z,99169.63
2022-08-31T06:04:39.262Z,99175.66
2022-08-31T06:07:06.530Z,99177.63
2022-08-31T06:09:51.270Z,99180.00
2022-08-31T06:12:20.117Z,99183.94
2022-08-31T06:14:51.259Z,99179.84
2022-08-31T06:17:20.952Z,99179.78
2022-08-31T06:19:48.168Z,99167.66
2022-08-31T06:22:15.610Z,99180.44
2022-08-31T06:24:43.139Z,99178.78
2022-08-31T06:27:10.467Z,99167.94
2022-08-31T06:29:37.977Z,99171.50
2022-08-31T06:32:08.344Z,99177.03
2022-08-31T06:34:40.057Z,99170.16
2022-08-31T06:37:18.269Z,99181.78
2022-08-31T06:40:15.582Z,99177.75
2022-08-31T06:42:57.368Z,99170.09
2022-08-31T06:45:47.408Z,99183.28
2022-08-31T06:48:33.280Z,99179.25
2022-08-31T06:51:01.087Z,99182.31
2022-08-31T06:53:29.798Z,99183.13
2022-08-31T06:56:21.392Z,99181.91
2022-08-31T06:59:08.306Z,99176.59
2022-08-31T07:01:56.016Z,99188.94
2022-08-31T07:04:35.158Z,99183.09
2022-08-31T07:07:04.667Z,99178.59
2022-08-31T07:09:32.307Z,99178.53
2022-08-31T07:11:59.485Z,99181.53
2022-08-31T07:14:27.808Z,99170.69
2022-08-31T07:16:58.665Z,99184.06
2022-08-31T07:19:27.343Z,99170.28
2022-08-31T07:21:58.686Z,99168.13
2022-08-31T07:24:30.622Z,99165.28
2022-08-31T07:27:02.386Z,99164.06
2022-08-31T07:29:43.026Z,99168.75
2022-08-31T07:32:14.787Z,99167.91
2022-08-31T07:34:44.570Z,99167.94
2022-08-31T07:37:42.093Z,99169.97
2022-08-31T07:40:29.315Z,99171.09
2022-08-31T07:42:56.975Z,99151.81
2022-08-31T07:45:25.740Z,99156.03
2022-08-31T07:47:57.918Z,99159.34
2022-08-31T07:50:28.055Z,99161.06
2022-08-31T07:53:18.526Z,99148.03
2022-08-31T07:55:56.794Z,99150.13
2022-08-31T07:58:31.357Z,99150.16
2022-08-31T08:01:03.003Z,99159.81
2022-08-31T08:03:30.371Z,99158.63
2022-08-31T08:06:34.170Z,99148.44
2022-08-31T08:09:24.371Z,99159.03
2022-08-31T08:12:01.195Z,99154.94
2022-08-31T08:14:54.793Z,99152.59
2022-08-31T08:17:31.622Z,99145.78
2022-08-31T08:20:13.554Z,99147.13
2022-08-31T08:22:54.147Z,99162.63
2022-08-31T08:25:35.027Z,99146.38
2022-08-31T08:28:38.575Z,99139.13
2022-08-31T08:31:12.834Z,99141.97
2022-08-31T08:33:40.182Z,99152.16
2022-08-31T08:36:08.397Z,99143.91
2022-08-31T08:38:39.773Z,99128.34
2022-08-31T08:41:13.856Z,99136.97
2022-08-31T08:43:52.218Z,99129.09
2022-08-31T08:46:36.879Z,99144.75
2022-08-31T08:49:19.436Z,99140.06
2022-08-31T08:51:54.363Z,99131.50
2022-08-31T08:54:38.093Z,99124.34
2022-08-31T08:57:18.167Z,99126.66
2022-08-31T08:59:49.614Z,99124.34
2022-08-31T09:02:55.976Z,99121.69
2022-08-31T09:05:56.751Z,99120.75
2022-08-31T09:08:51.159Z,99114.38
2022-08-31T09:11:27.421Z,99112.66
2022-08-31T09:14:19.752Z,99104.31
2022-08-31T09:17:25.890Z,99106.41
2022-08-31T09:20:00.278Z,99112.25
2022-08-31T09:22:47.155Z,99119.19
2022-08-31T09:25:32.850Z,99117.50
2022-08-31T09:28:17.238Z,99097.94
2022-08-31T09:30:44.698Z,99119.94
2022-08-31T09:33:25.885Z,99115.53
2022-08-31T09:35:58.303Z,99109.59
2022-08-31T09:38:40.515Z,99100.38
2022-08-31T09:41:22.814Z,99089.28
2022-08-31T09:43:50.837Z,99102.94
2022-08-31T09:46:31.666Z,99055.91
2022-08-31T09:49:03.263Z,99097.44
2022-08-31T09:51:36.331Z,99095.06
2022-08-31T09:54:34.290Z,99098.59
2022-08-31T09:57:05.548Z,99096.97
2022-08-31T09:59:40.144Z,99092.31
2022-08-31T10:02:13.016Z,99095.59
2022-08-31T10:04:55.639Z,99082.22
2022-08-31T10:07:52.025Z,99079.72
2022-08-31T10:10:43.216Z,99088.22
2022-08-31T10:13:27.227Z,99070.13
2022-08-31T10:16:07.289Z,99062.34
2022-08-31T10:19:02.871Z,99067.56
2022-08-31T10:21:52.404Z,99060.63
2022-08-31T10:24:47.504Z,99048.72
2022-08-31T10:27:38.550Z,99061.53
2022-08-31T10:30:23.350Z,99052.31
2022-08-31T10:33:00.607Z,99050.84
2022-08-31T10:35:55.926Z,99048.34
2022-08-31T10:38:35.388Z,99048.44
2022-08-31T10:41:10.141Z,99041.25
2022-08-31T10:44:26.542Z,99031.59
2022-08-31T10:47:02.907Z,99011.69
2022-08-31T10:49:30.379Z,99018.41
2022-08-31T10:52:21.003Z,99016.00
2022-08-31T10:55:13.150Z,99008.16
2022-08-31T10:57:49.905Z,99001.94
2022-08-31T11:00:41.950Z,99001.81
2022-08-31T11:03:09.143Z,99005.38
2022-08-31T11:05:55.100Z,99002.63
2022-08-31T11:08:37.313Z,98985.56
2022-08-31T11:11:10.120Z,98978.25
2022-08-31T11:13:49.725Z,98984.16
2022-08-31T11:16:32.818Z,98988.78
2022-08-31T11:19:20.360Z,98986.59
2022-08-31T11:22:14.215Z,98986.25
2022-08-31T11:25:03.511Z,98974.28
2022-08-31T11:27:41.014Z,98976.81
2022-08-31T11:30:11.188Z,98987.28
2022-08-31T11:32:50.682Z,98980.25
2022-08-31T11:35:49.630Z,98979.59
2022-08-31T11:38:48.522Z,98972.03
2022-08-31T11:41:46.851Z,98973.84
2022-08-31T11:44:33.057Z,98966.34
2022-08-31T11:47:12.992Z,98976.34
2022-08-31T11:49:50.324Z,98971.19
2022-08-31T11:52:29.990Z,98960.03
2022-08-31T11:55:03.027Z,98957.47
2022-08-31T11:57:37.460Z,98945.81
2022-08-31T12:00:19.991Z,98946.06
2022-08-31T12:03:04.711Z,98939.41
2022-08-31T12:05:56.395Z,98938.09
2022-08-31T12:08:28.459Z,98939.69
2022-08-31T12:11:10.215Z,98907.66
2022-08-31T12:13:45.942Z,98941.41
2022-08-31T12:16:30.131Z,98919.97
2022-08-31T12:19:03.621Z,98924.63
2022-08-31T12:21:56.283Z,98925.50
2022-08-31T12:24:23.322Z,98920.50
2022-08-31T12:27:09.201Z,98922.44
2022-08-31T12:29:40.282Z,98912.41
2022-08-31T12:32:19.346Z,98902.72
2022-08-31T12:35:17.678Z,98911.81
2022-08-31T12:37:45.097Z,98914.09
2022-08-31T12:40:16.059Z,98913.13
2022-08-31T12:43:01.035Z,98903.75
2022-08-31T12:45:43.693Z,98896.47
2022-08-31T12:48:37.210Z,98897.84
2022-08-31T12:51:13.097Z,98895.69
2022-08-31T12:53:52.569Z,98899.03
2022-08-31T12:56:22.658Z,98893.88
2022-08-31T12:58:52.595Z,98889.75
2022-08-31T13:01:24.156Z,98887.06
2022-08-31T13:03:56.696Z,98891.94
2022-08-31T13:06:33.526Z,98894.19
2022-08-31T13:09:02.190Z,98888.38
2022-08-31T13:11:41.129Z,98880.47
2022-08-31T13:14:23.326Z,98886.50
2022-08-31T13:16:55.642Z,98873.88
2022-08-31T13:19:25.832Z,98874.59
2022-08-31T13:21:58.328Z,98879.53
2022-08-31T13:24:32.020Z,98883.38
2022-08-31T13:27:20.228Z,98884.25
2022-08-31T13:29:49.367Z,98873.94
2022-08-31T13:32:32.324Z,98870.28
2022-08-31T13:35:04.555Z,98872.97
2022-08-31T13:37:37.895Z,98864.75
2022-08-31T13:40:10.130Z,98856.88
2022-08-31T13:42:43.018Z,98856.09
2022-08-31T13:45:39.458Z,98854.03
2022-08-31T13:48:13.525Z,98858.63
2022-08-31T13:50:53.793Z,98855.63
2022-08-31T13:53:40.229Z,98850.44
2022-08-31T13:56:47.646Z,98860.41
2022-08-31T13:59:24.041Z,98866.41
2022-08-31T14:01:53.400Z,98869.09
2022-08-31T14:04:46.557Z,98864.78
2022-08-31T14:07:20.539Z,98869.97
2022-08-31T14:10:19.836Z,98865.25
2022-08-31T14:12:51.949Z,98865.91
2022-08-31T14:15:21.663Z,98870.22
2022-08-31T14:21:27.180Z,98862.88
2022-08-31T14:24:05.904Z,98860.19
2022-08-31T14:26:37.168Z,98859.25
2022-08-31T14:29:12.496Z,98857.34
2022-08-31T14:31:55.150Z,98859.06
2022-08-31T14:34:25.400Z,98862.06
2022-08-31T14:37:10.631Z,98871.84
2022-08-31T14:39:41.940Z,98868.13
2022-08-31T14:42:35.011Z,98868.22
2022-08-31T14:45:21.229Z,98862.34
2022-08-31T14:47:52.518Z,98869.13
2022-08-31T14:50:25.055Z,98867.19
2022-08-31T14:52:53.121Z,98861.91
2022-08-31T14:55:22.385Z,98862.31
2022-08-31T14:57:58.094Z,98861.00
2022-08-31T15:00:26.034Z,98872.78
2022-08-31T15:02:53.868Z,98857.09
2022-08-31T15:05:23.993Z,98862.13
2022-08-31T15:07:55.146Z,98860.59
2022-08-31T15:10:25.768Z,98860.44
2022-08-31T15:12:54.284Z,98856.13
2022-08-31T15:15:21.763Z,98862.13
2022-08-31T15:17:51.749Z,98848.34
2022-08-31T15:20:23.100Z,98856.47
2022-08-31T15:22:50.275Z,98877.66
2022-08-31T15:25:20.826Z,98868.06
2022-08-31T15:27:49.458Z,98871.25
2022-08-31T15:30:19.745Z,98862.81
2022-08-31T15:32:48.319Z,98870.59
2022-08-31T15:35:23.436Z,98874.16
2022-08-31T15:37:56.619Z,98871.66
2022-08-31T15:40:25.290Z,98874.19
2022-08-31T15:42:56.610Z,98867.72
2022-08-31T15:45:25.880Z,98860.56
2022-08-31T15:48:11.838Z,98870.31
2022-08-31T15:50:49.564Z,98861.50
2022-08-31T15:53:17.233Z,98849.63
2022-08-31T15:55:44.877Z,98848.50
2022-08-31T15:58:12.723Z,98847.81
2022-08-31T16:00:41.962Z,98842.38
2022-08-31T16:03:10.191Z,98856.91
2022-08-31T16:05:39.390Z,98851.44
2022-08-31T16:08:10.439Z,98849.88
2022-08-31T16:10:43.022Z,98852.00
2022-08-31T16:13:10.700Z,98841.56
2022-08-31T16:15:38.836Z,98843.72
2022-08-31T16:18:07.235Z,98863.31
2022-08-31T16:20:34.830Z,98862.19
2022-08-31T16:23:03.134Z,98860.72
2022-08-31T16:25:47.488Z,98868.09
2022-08-31T16:28:21.048Z,98863.44
2022-08-31T16:30:51.210Z,98882.81
2022-08-31T16:33:19.689Z,98874.31
2022-08-31T16:35:47.687Z,98885.41
2022-08-31T16:38:15.577Z,98875.66
2022-08-31T16:40:43.935Z,98895.97
2022-08-31T16:43:11.289Z,98888.94
2022-08-31T16:45:40.709Z,98899.13
2022-08-31T16:48:29.306Z,98896.22
2022-08-31T16:51:02.448Z,98897.47
2022-08-31T16:53:31.005Z,98909.75
2022-08-31T16:56:00.072Z,98882.31
2022-08-31T16:58:50.718Z,98895.63
2022-08-31T17:01:26.526Z,98899.03
2022-08-31T17:04:00.321Z,98896.50
2022-08-31T17:06:33.969Z,98905.00
2022-08-31T17:09:05.550Z,98917.16
2022-08-31T17:11:37.868Z,98920.50
2022-08-31T17:14:07.801Z,98915.38
2022-08-31T17:16:38.648Z,98924.91
2022-08-31T17:19:10.792Z,98923.47
2022-08-31T17:21:50.541Z,98932.75
2022-08-31T17:24:26.890Z,98942.91
2022-08-31T17:26:59.766Z,98945.94
2022-08-31T17:29:34.145Z,98952.75
2022-08-31T17:32:13.670Z,98985.63
2022-08-31T17:34:43.183Z,98984.44
2022-08-31T17:37:15.280Z,98988.94
2022-08-31T17:39:44.645Z,98980.91
2022-08-31T17:42:15.395Z,98997.50
2022-08-31T17:44:45.021Z,99008.34
2022-08-31T17:47:12.397Z,99015.47
2022-08-31T17:49:44.466Z,99014.69
2022-08-31T17:52:13.660Z,99014.81
2022-08-31T17:54:43.206Z,99042.53
2022-08-31T17:57:13.991Z,99027.78
2022-08-31T17:59:44.379Z,99037.88
2022-08-31T18:02:21.240Z,99049.44
2022-08-31T18:04:49.017Z,99054.25
2022-08-31T18:07:16.647Z,99065.75
2022-08-31T18:09:48.084Z,99066.59
2022-08-31T18:12:18.148Z,99050.34
2022-08-31T18:14:45.266Z,99054.22
2022-08-31T18:17:16.379Z,99072.44
2022-08-31T18:19:44.808Z,99067.31
2022-08-31T18:22:14.419Z,99076.56
2022-08-31T18:24:42.707Z,99073.81
2022-08-31T18:27:15.492Z,99080.25
2022-08-31T18:29:44.385Z,99078.25
2022-08-31T18:32:12.388Z,99079.16
2022-08-31T18:34:44.930Z,99079.22
2022-08-31T18:37:13.073Z,99086.00
2022-08-31T18:40:07.692Z,99100.88
2022-08-31T18:42:56.860Z,99106.19
2022-08-31T18:45:25.853Z,99104.59
2022-08-31T18:50:47.330Z,99118.31
2022-08-31T18:53:28.519Z,99124.34
2022-08-31T18:56:06.407Z,99143.22
2022-08-31T18:58:34.092Z,99149.63
2022-08-31T19:01:01.568Z,99142.44
2022-08-31T19:03:29.063Z,99150.44
2022-08-31T19:05:57.312Z,99150.84
2022-08-31T19:08:26.317Z,99148.00
2022-08-31T19:10:54.367Z,99150.44
2022-08-31T19:13:21.946Z,99151.25
2022-08-31T19:15:49.169Z,99136.00
2022-08-31T19:18:16.716Z,99134.41
2022-08-31T19:20:44.091Z,99125.59
2022-08-31T19:23:11.896Z,99136.00
2022-08-31T19:25:43.102Z,99130.81
2022-08-31T19:28:39.166Z,99125.22
2022-08-31T19:31:13.046Z,99119.22
2022-08-31T19:33:57.403Z,99121.22
2022-08-31T19:36:40.449Z,99116.44
2022-08-31T19:39:10.790Z,99114.81
2022-08-31T19:41:49.256Z,99110.41
2022-08-31T19:44:17.641Z,99111.22
2022-08-31T19:46:54.091Z,99111.22
2022-08-31T19:49:21.729Z,99096.00
2022-08-31T19:51:56.661Z,99092.78
2022-08-31T19:54:31.304Z,99099.59
2022-08-31T19:57:02.161Z,99101.56
2022-08-31T19:59:30.030Z,99088.72
2022-08-31T20:01:59.459Z,99088.72
2022-08-31T20:04:28.819Z,99083.09
2022-08-31T20:06:57.302Z,99089.16
2022-08-31T20:09:25.535Z,99086.78
2022-08-31T20:11:54.676Z,99085.19
2022-08-31T20:14:23.466Z,99084.78
2022-08-31T20:16:52.289Z,99087.97
2022-08-31T20:19:25.373Z,99078.78
2022-08-31T20:21:55.193Z,99081.97
2022-08-31T20:24:28.118Z,99067.94
2022-08-31T20:26:59.933Z,99063.91
2022-08-31T20:29:27.911Z,99066.31
2022-08-31T20:31:56.244Z,99071.13
2022-08-31T20:34:28.211Z,99084.34
2022-08-31T20:37:00.927Z,99087.97
2022-08-31T20:39:30.980Z,99092.38
2022-08-31T20:42:00.204Z,99101.19
2022-08-31T20:44:35.641Z,99101.59
2022-08-31T20:47:27.309Z,99107.59
2022-08-31T20:50:01.003Z,99105.59
2022-08-31T20:52:32.610Z,99100.00
2022-08-31T20:55:02.585Z,99100.38
2022-08-31T20:57:34.030Z,99097.59
2022-08-31T21:00:05.600Z,99102.41
2022-08-31T21:02:35.344Z,99101.59
2022-08-31T21:05:33.947Z,99113.59
2022-08-31T21:07:57.494Z,99117.22
2022-08-31T21:10:37.027Z,99118.41
2022-08-31T21:13:07.419Z,99105.59
2022-08-31T21:15:34.774Z,99114.41
2022-08-31T21:18:02.216Z,99113.59
2022-08-31T21:20:29.408Z,99111.19
2022-08-31T21:22:56.617Z,99118.00
2022-08-31T21:25:23.889Z,99116.41
2022-08-31T21:27:53.018Z,99124.41
2022-08-31T21:30:20.405Z,99126.41
2022-08-31T21:32:56.121Z,99135.63
2022-08-31T21:35:27.559Z,99137.63
2022-08-31T21:37:57.029Z,99132.03
2022-08-31T21:40:24.705Z,99131.22
2022-08-31T21:42:51.713Z,99132.81
2022-08-31T21:45:19.111Z,99134.41
2022-08-31T21:47:46.218Z,99129.63
2022-08-31T21:50:13.703Z,99130.44
2022-08-31T21:52:41.107Z,99128.41
2022-08-31T21:55:13.683Z,99130.00
2022-08-31T21:57:41.921Z,99127.59
2022-08-31T22:00:15.958Z,99123.16
2022-08-31T22:02:47.418Z,99127.97
2022-08-31T22:05:15.282Z,99128.72
2022-08-31T22:07:43.232Z,99135.94
2022-08-31T22:10:12.230Z,99127.09
2022-08-31T22:12:39.475Z,99129.09
2022-08-31T22:15:10.449Z,99138.28
2022-08-31T22:18:02.114Z,99138.28
2022-08-31T22:20:27.865Z,99138.31
2022-08-31T22:22:55.255Z,99124.66
2022-08-31T22:25:22.651Z,99130.63
2022-08-31T22:27:51.441Z,99129.41
2022-08-31T22:30:20.331Z,99115.78
2022-08-31T22:32:48.032Z,99110.91
2022-08-31T22:35:18.557Z,99117.38
2022-08-31T22:37:46.321Z,99121.75
2022-08-31T22:40:21.894Z,99108.13
2022-08-31T22:42:54.260Z,99105.69
2022-08-31T22:45:23.911Z,99105.69
2022-08-31T22:47:51.969Z,99109.69
2022-08-31T22:50:20.413Z,99102.88
2022-08-31T22:52:48.315Z,99108.38
2022-08-31T22:55:15.815Z,99099.56
2022-08-31T22:57:42.948Z,99112.44
2022-08-31T23:00:14.725Z,99104.47
2022-08-31T23:02:45.379Z,99106.84
2022-08-31T23:05:15.260Z,99096.00
2022-08-31T23:07:43.075Z,99103.28
2022-08-31T23:10:16.520Z,99109.25
2022-08-31T23:12:46.887Z,99102.00
2022-08-31T23:15:18.037Z,99103.59
2022-08-31T23:17:51.586Z,99100.44
2022-08-31T23:20:24.534Z,99079.19
2022-08-31T23:22:55.028Z,99088.00
2022-08-31T23:25:24.110Z,99087.19
2022-08-31T23:27:52.320Z,99085.16
2022-08-31T23:30:21.495Z,99090.38
2022-08-31T23:32:53.524Z,99096.34
2022-08-31T23:35:22.054Z,99096.34
2022-08-31T23:37:50.400Z,99100.75
2022-08-31T23:40:18.925Z,99082.75
2022-08-31T23:42:47.248Z,99080.38
2022-08-31T23:45:16.356Z,99087.16
2022-08-31T23:47:43.464Z,99084.78
2022-08-31T23:50:11.112Z,99074.09
2022-08-31T23:52:41.716Z,99075.00
2022-08-31T23:55:11.078Z,99079.00
2022-08-31T23:57:39.602Z,99077.41
